Data for 09/25/2005

Time Sea-Level Adjusted Pressure Absolute Pressure Temperature Relative Humidity Dew Point   
(mb) (inHg) (mb) (inHg) (C) (F) (%) (C) (F)
00:05 1019 30.09 848 25.04 5.3 41.6 94 4.4 39.9
00:10 1019 30.09 848 25.04 5.3 41.5 93 4.3 39.7
00:15 1019 30.09 848 25.04 5.2 41.3 94 4.2 39.6
00:20 1019 30.09 848 25.04 5.2 41.3 93 4.1 39.4
00:25 1019 30.09 849 25.07 5.1 41.2 94 4.2 39.5
00:30 1019 30.09 849 25.07 5 41 94 4.1 39.5
00:35 1019 30.09 848 25.04 4.9 40.9 95 4.2 39.5
00:40 1019 30.09 848 25.04 4.8 40.7 94 4 39.1
00:45 1019 30.09 848 25.04 4.9 40.8 95 4.1 39.3
00:50 1019 30.09 848 25.04 4.9 40.8 95 4.2 39.5
00:55 1019 30.09 848 25.04 5 41 95 4.3 39.7
01:00 1019 30.09 848 25.04 5.2 41.3 94 4.2 39.6
01:05 1019 30.09 848 25.04 5.2 41.3 93 4.2 39.5
01:10 1019 30.09 848 25.04 5.1 41.1 94 4.2 39.6
01:15 1019 30.09 848 25.04 5.1 41.2 94 4.2 39.5
01:20 1019 30.09 848 25.04 5 41 94 4.2 39.5
01:25 1019 30.09 848 25.04 4.9 40.8 95 4.1 39.4
01:30 1019 30.09 848 25.04 4.8 40.6 95 4.1 39.3
01:35 1019 30.09 848 25.04 4.7 40.5 96 4.1 39.5
01:40 1019 30.09 848 25.04 4.8 40.6 96 4.2 39.5
01:45 1019 30.09 848 25.04 4.8 40.6 96 4.1 39.5
01:50 1019 30.09 848 25.04 4.8 40.6 96 4.2 39.5
01:55 1019 30.09 848 25.04 4.9 40.8 95 4.2 39.6
02:00 1019 30.09 848 25.04 5 41 95 4.2 39.6
02:05 1019 30.09 848 25.04 5.1 41.2 94 4.2 39.6
02:10 1019 30.09 849 25.07 5.1 41.2 94 4.2 39.6
02:15 1019 30.09 849 25.07 5.1 41.1 94 4.2 39.5
02:20 1019 30.09 849 25.07 5.2 41.4 93 4.2 39.5
02:25 1019 30.09 849 25.07 5.2 41.3 93 4.1 39.4
02:30 1019 30.09 849 25.07 5.2 41.3 93 4.1 39.4
02:35 1019 30.09 849 25.07 5.1 41.3 93 4.1 39.5
02:40 1019 30.09 848 25.04 5.2 41.3 94 4.2 39.6
02:45 1019 30.09 848 25.04 5.1 41.3 93 4.1 39.4
02:50 1019 30.09 848 25.04 5.1 41.2 93 4.1 39.4
02:55 1019 30.09 848 25.04 4.8 40.7 95 4.1 39.5
03:00 1019 30.09 848 25.04 4.8 40.6 96 4.1 39.5
03:05 1019 30.09 849 25.07 4.9 40.9 95 4.1 39.4
03:10 1019 30.09 848 25.04 4.9 40.8 95 4.1 39.4
03:15 1019 30.09 848 25.04 4.9 40.9 95 4.2 39.5
03:20 1019 30.09 848 25.04 5 41 95 4.2 39.6
03:25 1019 30.09 848 25.04 4.8 40.6 95 4 39.1
03:30 1019 30.09 849 25.07 4.7 40.4 94 3.8 38.9
03:35 1019 30.09 849 25.07 4.6 40.4 94 3.8 38.8
03:40 1019 30.09 849 25.07 4.6 40.3 94 3.8 38.8
03:45 1019 30.09 849 25.07 4.6 40.3 94 3.7 38.7
03:50 1019 30.09 849 25.07 4.6 40.3 94 3.7 38.7
03:55 1020 30.12 849 25.07 4.5 40.2 94 3.6 38.5
04:00 1020 30.12 849 25.07 4.5 40.1 93 3.5 38.3
04:05 1020 30.12 849 25.07 4.4 40 94 3.5 38.3
04:10 1020 30.12 849 25.07 4.4 40 93 3.5 38.2
04:15 1020 30.12 849 25.07 4.4 40 94 3.5 38.3
04:20 1020 30.12 849 25.07 4.5 40.1 94 3.5 38.4
04:25 1020 30.12 849 25.07 4.5 40.1 93 3.5 38.2
04:30 1020 30.12 849 25.07 4.5 40 93 3.5 38.2
04:35 1020 30.12 849 25.07 4.5 40.1 93 3.5 38.3
04:40 1020 30.12 849 25.07 4.4 40 93 3.4 38.2
04:45 1020 30.12 849 25.07 4.5 40.1 93 3.5 38.2
04:50 1020 30.12 849 25.07 4.4 40 93 3.4 38.1
04:55 1020 30.12 849 25.07 4.5 40.1 93 3.5 38.2
05:00 1020 30.12 849 25.07 4.5 40.1 93 3.4 38.1
05:05 1020 30.12 849 25.07 4.5 40.1 93 3.4 38.2
05:10 1020 30.12 849 25.07 4.5 40.2 92 3.4 38.1
05:15 1020 30.12 849 25.07 4.6 40.3 92 3.4 38.2
05:20 1020 30.12 849 25.07 4.6 40.2 92 3.4 38.1
05:25 1020 30.12 849 25.07 4.6 40.3 92 3.4 38.2
05:30 1020 30.12 849 25.07 4.6 40.3 92 3.4 38.1
05:35 1020 30.12 849 25.07 4.5 40.2 92 3.3 38
05:40 1020 30.12 849 25.07 4.6 40.3 92 3.4 38.1
05:45 1020 30.12 849 25.07 4.6 40.3 92 3.4 38.1
05:50 1020 30.12 849 25.07 4.6 40.3 92 3.5 38.2
05:55 1020 30.12 849 25.07 4.7 40.5 92 3.5 38.3
06:00 1020 30.12 849 25.07 4.7 40.5 92 3.5 38.4
06:05 1020 30.12 849 25.07 4.8 40.6 92 3.5 38.3
06:10 1020 30.12 849 25.07 4.6 40.4 92 3.5 38.3
06:15 1020 30.12 849 25.07 4.6 40.3 93 3.5 38.4
06:20 1020 30.12 849 25.07 4.7 40.4 92 3.5 38.2
06:25 1020 30.12 849 25.07 4.7 40.5 92 3.5 38.3
06:30 1020 30.12 849 25.07 4.8 40.6 92 3.5 38.3
06:35 1020 30.12 849 25.07 4.7 40.4 93 3.5 38.4
06:40 1020 30.12 849 25.07 4.7 40.5 92 3.6 38.4
06:45 1020 30.12 849 25.07 4.8 40.6 92 3.6 38.5
06:50 1020 30.12 849 25.07 4.8 40.6 93 3.7 38.7
06:55 1020 30.12 849 25.07 4.8 40.7 93 3.8 38.8
07:00 1020 30.12 850 25.1 4.8 40.6 93 3.7 38.7
07:05 1020 30.12 850 25.1 4.8 40.7 93 3.7 38.7
07:10 1020 30.12 850 25.1 4.7 40.5 94 3.8 38.8
07:15 1020 30.12 850 25.1 4.7 40.5 93 3.8 38.8
07:20 1020 30.12 850 25.1 4.6 40.3 94 3.8 38.8
07:25 1020 30.12 850 25.1 4.6 40.3 94 3.8 38.8
07:30 1021 30.15 850 25.1 4.7 40.5 93 3.7 38.7
07:35 1021 30.15 850 25.1 4.7 40.5 93 3.7 38.6
07:40 1021 30.15 850 25.1 4.6 40.3 93 3.7 38.6
07:45 1021 30.15 850 25.1 4.7 40.4 93 3.7 38.6
07:50 1021 30.15 850 25.1 4.7 40.5 93 3.6 38.5
07:55 1021 30.15 850 25.1 4.8 40.6 92 3.6 38.5
08:00 1021 30.15 850 25.1 4.9 40.8 92 3.8 38.8
08:05 1021 30.15 850 25.1 5 40.9 92 3.7 38.7
08:10 1021 30.15 850 25.1 5 41.1 92 3.8 38.9
08:15 1021 30.15 850 25.1 5.1 41.2 91 3.8 38.8
08:20 1021 30.15 850 25.1 5.1 41.1 91 3.8 38.8
08:25 1021 30.15 850 25.1 5.1 41.1 90 3.6 38.5
08:30 1021 30.15 850 25.1 4.8 40.6 91 3.5 38.3
08:35 1021 30.15 850 25.1 4.8 40.6 90 3.4 38.1
08:40 1021 30.15 850 25.1 4.9 40.8 88 3 37.4
08:45 1021 30.15 850 25.1 4.9 40.9 87 3 37.4
08:50 1021 30.15 850 25.1 5 40.9 87 3 37.4
08:55 1021 30.15 850 25.1 4.9 40.8 87 2.9 37.2
09:00 1021 30.15 850 25.1 4.9 40.9 86 2.8 37.1
09:05 1021 30.15 850 25.1 5 40.9 85 2.7 36.9
09:10 1021 30.15 850 25.1 5 40.9 86 2.8 37
09:15 1021 30.15 850 25.1 5.2 41.4 85 2.9 37.1
09:20 1021 30.15 851 25.13 5.5 41.8 83 2.9 37.2
09:25 1021 30.15 851 25.13 5.4 41.7 83 2.8 37.1
09:30 1021 30.15 851 25.13 5.5 41.9 83 2.8 37
09:35 1021 30.15 851 25.13 5.6 42.1 83 2.9 37.3
09:40 1021 30.15 851 25.13 5.7 42.2 82 2.9 37.2
09:45 1022 30.18 851 25.13 5.9 42.6 82 3 37.4
09:50 1022 30.18 851 25.13 6.3 43.3 80 3 37.4
09:55 1022 30.18 851 25.13 6.7 44 78 3.2 37.7
10:00 1022 30.18 851 25.13 6.8 44.3 78 3.3 37.9
10:05 1022 30.18 851 25.13 7 44.5 78 3.5 38.2
10:10 1022 30.18 851 25.13 7.1 44.9 77 3.3 38
10:15 1022 30.18 851 25.13 7.4 45.3 76 3.4 38.2
10:20 1022 30.18 851 25.13 7 44.6 79 3.6 38.5
10:25 1022 30.18 851 25.13 7.2 45 76 3.3 38
10:30 1022 30.18 851 25.13 7.5 45.4 75 3.3 38
10:35 1021 30.15 851 25.13 8 46.3 73 3.4 38.1
10:40 1021 30.15 851 25.13 8.5 47.3 69 3.2 37.8
10:45 1021 30.15 851 25.13 9.4 48.9 67 3.5 38.4
10:50 1021 30.15 851 25.13 9.6 49.4 67 3.9 38.9
10:55 1021 30.15 851 25.13 9.7 49.5 67 4 39.2
11:00 1021 30.15 851 25.13 8.3 46.9 77 4.5 40.1
11:05 1021 30.15 851 25.13 7.8 46.1 75 3.8 38.8
11:10 1021 30.15 851 25.13 8.3 46.9 71 3.3 37.9
11:15 1021 30.15 851 25.13 8.9 48 70 3.8 38.9
11:20 1021 30.15 851 25.13 9.6 49.2 66 3.7 38.6
11:25 1021 30.15 851 25.13 9.9 49.7 67 4.1 39.4
11:30 1021 30.15 851 25.13 10.7 51.3 62 3.8 38.9
11:35 1022 30.18 851 25.13 11 51.8 64 4.4 40
11:40 1021 30.15 851 25.13 10.6 51.1 65 4.3 39.7
11:45 1022 30.18 851 25.13 10.9 51.6 63 4.1 39.3
11:50 1022 30.18 851 25.13 11.2 52.2 61 3.9 39.1
11:55 1022 30.18 851 25.13 11.6 52.8 61 4.4 39.9
12:00 1022 30.18 851 25.13 11.8 53.2 59 4 39.3
12:05 1022 30.18 851 25.13 11.9 53.5 61 4.8 40.6
12:10 1022 30.18 851 25.13 11.2 52.1 62 4.2 39.5
12:15 1022 30.18 851 25.13 10.7 51.3 64 4.3 39.8
12:20 1021 30.15 851 25.13 10.6 51.1 65 4.4 39.9
12:25 1021 30.15 851 25.13 10.6 51.1 64 4.1 39.3
12:30 1021 30.15 851 25.13 11 51.8 61 3.8 38.8
12:35 1021 30.15 851 25.13 11.7 53.1 60 4.2 39.6
12:40 1021 30.15 851 25.13 11.5 52.6 61 4.3 39.7
12:45 1021 30.15 851 25.13 10.6 51 63 3.9 39.1
12:50 1021 30.15 851 25.13 11.1 51.9 64 4.4 40
12:55 1021 30.15 851 25.13 10.7 51.3 65 4.5 40
13:00 1021 30.15 851 25.13 9.7 49.4 67 3.9 39
13:05 1021 30.15 851 25.13 9.7 49.5 65 3.6 38.4
13:10 1021 30.15 851 25.13 10.4 50.7 64 3.9 39
13:15 1021 30.15 851 25.13 10.8 51.4 59 3.2 37.7
13:20 1021 30.15 850 25.1 12.2 54 53 3 37.4
13:25 1021 30.15 850 25.1 12.5 54.5 54 3.4 38.2
13:30 1021 30.15 850 25.1 12.3 54.1 58 4.2 39.6
13:35 1021 30.15 850 25.1 12 53.6 55 3.4 38.1
13:40 1021 30.15 850 25.1 12.1 53.9 57 3.8 38.9
13:45 1021 30.15 850 25.1 12 53.6 55 3.2 37.7
13:50 1021 30.15 850 25.1 12.3 54.1 53 3 37.5
13:55 1021 30.15 850 25.1 12.3 54.1 54 3.2 37.7
14:00 1021 30.15 850 25.1 12.1 53.8 55 3.4 38.1
14:05 1021 30.15 850 25.1 11.9 53.3 55 3.2 37.7
14:10 1021 30.15 850 25.1 11.6 52.9 56 3.2 37.8
14:15 1021 30.15 850 25.1 11.9 53.4 52 2.5 36.5
14:20 1021 30.15 850 25.1 11.8 53.2 51 2.1 35.7
14:25 1021 30.15 850 25.1 11.8 53.2 53 2.6 36.6
14:30 1021 30.15 850 25.1 12 53.6 52 2.5 36.4
14:35 1021 30.15 850 25.1 12.1 53.8 50 2 35.6
14:40 1021 30.15 850 25.1 12.9 55.2 48 2.1 35.8
14:45 1021 30.15 850 25.1 13 55.3 49 2.6 36.6
14:50 1021 30.15 850 25.1 12.8 55.1 50 2.7 36.9
14:55 1021 30.15 850 25.1 13.1 55.6 49 2.6 36.6
15:00 1021 30.15 850 25.1 13.1 55.5 48 2.4 36.4
15:05 1021 30.15 850 25.1 12.8 55.1 47 1.9 35.5
15:10 1021 30.15 850 25.1 12.8 55 47 1.8 35.2
15:15 1021 30.15 850 25.1 13 55.4 46 1.6 34.8
15:20 1021 30.15 850 25.1 13.6 56.5 41 0.8 33.5
15:25 1021 30.15 850 25.1 13.4 56.2 41 0.6 33.1
15:30 1021 30.15 850 25.1 13.3 56 39 -0.2 31.7
15:35 1021 30.15 850 25.1 13.6 56.5 37 -0.7 30.8
15:40 1021 30.15 850 25.1 14.3 57.7 34 -1.3 29.6
15:45 1021 30.15 850 25.1 14.4 57.9 34 -1.3 29.7
15:50 1021 30.15 850 25.1 14.3 57.7 36 -0.3 31.4
15:55 1021 30.15 850 25.1 14.2 57.6 38 0.1 32.3
16:00 1021 30.15 850 25.1 13.5 56.3 38 -0.5 31.1
16:05 1021 30.15 850 25.1 13.9 57 38 0 32.1
16:10 1021 30.15 850 25.1 14.2 57.5 38 0.2 32.4
16:15 1021 30.15 850 25.1 14.8 58.6 34 -0.7 30.7
16:20 1021 30.15 850 25.1 15.3 59.5 34 -0.6 30.9
16:25 1021 30.15 850 25.1 14.7 58.5 35 -0.6 30.9
16:30 1021 30.15 850 25.1 14.8 58.7 34 -0.8 30.5
16:35 1021 30.15 850 25.1 14.8 58.7 33 -1.1 30
16:40 1021 30.15 850 25.1 14.8 58.7 35 -0.5 31
16:45 1021 30.15 850 25.1 14.2 57.5 38 0.1 32.1
16:50 1021 30.15 850 25.1 13.6 56.4 38 -0.4 31.3
16:55 1021 30.15 850 25.1 14.1 57.4 36 -0.8 30.5
17:00 1021 30.15 850 25.1 14.6 58.2 38 0.4 32.7
17:05 1021 30.15 850 25.1 14.6 58.3 38 0.4 32.8
17:10 1021 30.15 850 25.1 14.1 57.3 39 0.5 32.8
17:15 1021 30.15 850 25.1 14.2 57.5 37 -0.1 31.8
17:20 1021 30.15 850 25.1 14.3 57.8 35 -1 30.2
17:25 1021 30.15 850 25.1 14.6 58.3 35 -0.6 30.8
17:30 1021 30.15 850 25.1 14.9 58.7 33 -1 30.2
17:35 1021 30.15 850 25.1 14.8 58.7 33 -1 30.2
17:40 1021 30.15 850 25.1 14.8 58.6 34 -0.7 30.8
17:45 1021 30.15 850 25.1 14.7 58.5 34 -1 30.2
17:50 1021 30.15 850 25.1 14.7 58.5 34 -0.8 30.6
17:55 1021 30.15 850 25.1 14.8 58.6 34 -0.6 30.9
18:00 1021 30.15 850 25.1 14.6 58.3 34 -0.8 30.5
18:05 1021 30.15 851 25.13 14.7 58.4 34 -0.8 30.5
18:10 1021 30.15 851 25.13 14.6 58.2 34 -1 30.1
18:15 1021 30.15 851 25.13 14.5 58 34 -0.9 30.3
18:20 1021 30.15 851 25.13 14.6 58.3 35 -0.8 30.6
18:25 1021 30.15 851 25.13 14.5 58 35 -0.6 30.9
18:30 1021 30.15 851 25.13 14.4 57.9 35 -0.9 30.3
18:35 1021 30.15 851 25.13 14.4 57.8 37 -0 32
18:40 1021 30.15 851 25.13 13.9 56.9 39 0.3 32.6
18:45 1022 30.18 851 25.13 13.5 56.3 40 0.4 32.7
18:50 1022 30.18 851 25.13 13.3 56 41 0.3 32.5
18:55 1022 30.18 851 25.13 13.1 55.6 42 0.6 33.1
19:00 1022 30.18 851 25.13 13 55.3 41 0.2 32.3
19:05 1022 30.18 851 25.13 12.5 54.6 47 1.7 35
19:10 1022 30.18 851 25.13 12.1 53.7 48 1.3 34.4
19:15 1022 30.18 851 25.13 12.2 54 45 0.6 33.2
19:20 1022 30.18 851 25.13 12.3 54.1 45 0.8 33.4
19:25 1022 30.18 851 25.13 12.2 53.9 47 1.1 34
19:30 1022 30.18 851 25.13 12 53.6 47 1.2 34.1
19:35 1022 30.18 851 25.13 11.8 53.2 49 1.3 34.4
19:40 1022 30.18 851 25.13 11.6 52.8 50 1.7 35
19:45 1022 30.18 851 25.13 10.6 51 54 1.8 35.2
19:50 1022 30.18 851 25.13 9.5 49.2 59 2 35.5
19:55 1022 30.18 851 25.13 8.7 47.7 61 1.8 35.2
20:00 1022 30.18 851 25.13 8.6 47.5 62 1.9 35.4
20:05 1022 30.18 851 25.13 8.4 47.2 63 1.9 35.5
20:10 1022 30.18 851 25.13 8.1 46.7 65 2.1 35.7
20:15 1022 30.18 851 25.13 8.2 46.7 64 1.9 35.4
20:20 1022 30.18 851 25.13 8.4 47.2 63 1.8 35.3
20:25 1022 30.18 851 25.13 8.4 47.1 63 1.9 35.4
20:30 1022 30.18 851 25.13 8.1 46.6 65 2 35.5
20:35 1022 30.18 851 25.13 7.7 45.9 68 2.1 35.9
20:40 1022 30.18 852 25.16 7.7 45.8 67 1.9 35.5
20:45 1022 30.18 852 25.16 7.8 46 66 1.8 35.2
20:50 1022 30.18 852 25.16 8 46.3 64 1.7 35
20:55 1022 30.18 852 25.16 8 46.4 64 1.7 35.1
21:00 1022 30.18 852 25.16 7.9 46.3 64 1.6 34.9
21:05 1023 30.21 852 25.16 7.8 46 65 1.6 35
21:10 1023 30.21 852 25.16 7.6 45.6 66 1.7 35.1
21:15 1023 30.21 852 25.16 7.3 45.2 67 1.7 35
21:20 1023 30.21 852 25.16 7.2 45 68 1.8 35.2
21:25 1023 30.21 852 25.16 7 44.7 69 1.7 35.1
21:30 1023 30.21 852 25.16 6.9 44.5 69 1.6 34.9
21:35 1023 30.21 852 25.16 6.9 44.4 68 1.5 34.7
21:40 1023 30.21 852 25.16 7 44.6 68 1.5 34.7
21:45 1023 30.21 852 25.16 7.1 44.7 67 1.5 34.6
21:50 1023 30.21 852 25.16 7.2 44.9 67 1.4 34.5
21:55 1023 30.21 852 25.16 7 44.5 68 1.5 34.8
22:00 1023 30.21 852 25.16 6.7 44 70 1.5 34.8
22:05 1023 30.21 852 25.16 6.5 43.7 71 1.6 34.8
22:10 1023 30.21 852 25.16 6.5 43.6 71 1.5 34.8
22:15 1023 30.21 852 25.16 6.2 43.2 72 1.6 34.9
22:20 1023 30.21 852 25.16 5.9 42.5 72 1.1 34
22:25 1023 30.21 852 25.16 6 42.9 69 0.8 33.5
22:30 1023 30.21 852 25.16 6.1 43 70 1 33.8
22:35 1023 30.21 852 25.16 6.4 43.6 67 0.7 33.3
22:40 1023 30.21 852 25.16 6.5 43.7 67 0.7 33.3
22:45 1023 30.21 852 25.16 6.5 43.7 66 0.6 33.1
22:50 1023 30.21 852 25.16 6.5 43.6 67 0.8 33.4
22:55 1023 30.21 853 25.19 6.4 43.5 66 0.6 33.1
23:00 1023 30.21 853 25.19 6.5 43.6 67 0.7 33.3
23:05 1023 30.21 853 25.19 6.2 43.2 68 0.8 33.4
23:10 1023 30.21 853 25.19 6.2 43.1 68 0.7 33.3
23:15 1023 30.21 853 25.19 5.9 42.6 70 0.8 33.4
23:20 1024 30.24 853 25.19 5.8 42.5 68 0.5 32.9
23:25 1024 30.24 853 25.19 5.9 42.7 68 0.5 32.8
23:30 1024 30.24 853 25.19 5.9 42.6 68 0.4 32.8
23:35 1024 30.24 853 25.19 5.9 42.6 68 0.5 32.9
23:40 1024 30.24 853 25.19 6.1 43 67 0.4 32.8
23:45 1024 30.24 853 25.19 6.2 43.1 67 0.5 32.9
23:50 1024 30.24 853 25.19 6.3 43.3 67 0.6 33
23:55 1024 30.24 853 25.19 6.4 43.5 65 0.4 32.7
24:00 1024 30.24 853 25.19 6.6 44 65 0.5 32.9